Time,TemperatureF,DewpointF,PressureIn,WindDirection,WindDirectionDegrees,WindSpeedMPH,WindSpeedGustMPH,Humidity,HourlyPrecipIn,Conditions,Clouds,dailyrainin,SoftwareType,DateUTC
2013-04-21 00:00:00,20.5,17.0,30.46,East,84,0.0,0.0,86,0.00,,CLR,0.00,VWS V14.01,2013-04-21 04:00:00,
2013-04-21 00:01:00,20.5,16.7,30.46,East,84,0.0,0.0,85,0.00,,CLR,0.00,VWS V14.01,2013-04-21 04:01:00,
2013-04-21 00:03:00,20.4,16.6,30.46,East,84,0.0,0.0,85,0.00,,CLR,0.00,VWS V14.01,2013-04-21 04:03:00,
2013-04-21 00:08:00,20.1,16.6,30.47,East,84,0.0,0.0,86,0.00,,CLR,0.00,VWS V14.01,2013-04-21 04:08:00,
2013-04-21 00:13:00,20.3,16.8,30.47,East,84,2.0,2.0,86,0.00,,CLR,0.00,VWS V14.01,2013-04-21 04:13:00,
2013-04-21 00:18:00,19.7,16.5,30.47,East,84,0.0,1.0,87,0.00,,CLR,0.00,VWS V14.01,2013-04-21 04:18:00,
2013-04-21 00:23:00,20.0,16.8,30.47,East,84,1.0,1.0,87,0.00,,CLR,0.00,VWS V14.01,2013-04-21 04:23:00,
2013-04-21 00:28:00,20.7,16.9,30.47,East,84,1.0,2.0,85,0.00,,CLR,0.00,VWS V14.01,2013-04-21 04:28:00,
2013-04-21 00:33:00,21.5,17.1,30.47,East,86,1.0,1.0,83,0.00,,CLR,0.00,VWS V14.01,2013-04-21 04:33:00,
2013-04-21 00:38:00,21.0,16.9,30.47,East,93,2.0,2.0,84,0.00,,CLR,0.00,VWS V14.01,2013-04-21 04:38:00,
2013-04-21 00:43:00,20.8,17.3,30.47,East,98,1.0,2.0,86,0.00,,CLR,0.00,VWS V14.01,2013-04-21 04:43:00,
2013-04-21 00:48:00,20.3,16.8,30.48,East,98,1.0,2.0,86,0.00,,CLR,0.00,VWS V14.01,2013-04-21 04:48:00,
2013-04-21 00:53:00,19.6,16.4,30.48,East,98,1.0,1.0,87,0.00,,CLR,0.00,VWS V14.01,2013-04-21 04:53:00,
2013-04-21 00:58:00,19.7,16.7,30.48,East,98,1.0,2.0,88,0.00,,CLR,0.00,VWS V14.01,2013-04-21 04:58:00,
2013-04-21 01:03:00,19.0,15.8,30.48,East,98,1.0,1.0,87,0.00,,CLR,0.00,VWS V14.01,2013-04-21 05:03:00,
2013-04-21 01:08:00,18.9,16.5,30.49,East,98,0.0,0.0,90,0.00,,CLR,0.00,VWS V14.01,2013-04-21 05:08:00,
2013-04-21 01:13:00,18.3,15.4,30.49,East,98,2.0,2.0,88,0.00,,CLR,0.00,VWS V14.01,2013-04-21 05:13:00,
2013-04-21 01:18:00,18.6,16.2,30.49,East,98,0.0,1.0,90,0.00,,CLR,0.00,VWS V14.01,2013-04-21 05:18:00,
2013-04-21 01:23:00,18.9,15.9,30.49,East,98,1.0,1.0,88,0.00,,CLR,0.00,VWS V14.01,2013-04-21 05:23:00,
2013-04-21 01:28:00,18.1,15.4,30.49,East,98,1.0,2.0,89,0.00,,CLR,0.00,VWS V14.01,2013-04-21 05:28:00,
2013-04-21 01:33:00,17.9,15.5,30.50,East,98,1.0,1.0,90,0.00,,CLR,0.00,VWS V14.01,2013-04-21 05:33:00,
2013-04-21 01:38:00,18.4,16.2,30.50,East,98,1.0,2.0,91,0.00,,CLR,0.00,VWS V14.01,2013-04-21 05:38:00,
2013-04-21 01:43:00,17.9,15.5,30.50,East,98,2.0,3.0,90,0.00,,CLR,0.00,VWS V14.01,2013-04-21 05:43:00,
2013-04-21 01:48:00,17.7,15.5,30.50,East,98,2.0,2.0,91,0.00,,CLR,0.00,VWS V14.01,2013-04-21 05:48:00,
2013-04-21 01:53:00,18.4,16.0,30.50,ESE,105,1.0,1.0,90,0.00,,CLR,0.00,VWS V14.01,2013-04-21 05:53:00,
2013-04-21 01:58:00,18.3,15.6,30.50,ESE,105,1.0,1.0,89,0.00,,CLR,0.00,VWS V14.01,2013-04-21 05:58:00,
2013-04-21 02:03:00,18.1,15.7,30.50,ESE,105,2.0,2.0,90,0.00,,CLR,0.00,VWS V14.01,2013-04-21 06:03:00,
2013-04-21 02:08:00,18.1,15.7,30.50,ESE,105,0.0,0.0,90,0.00,,CLR,0.00,VWS V14.01,2013-04-21 06:08:00,
2013-04-21 02:13:00,17.7,15.0,30.50,ESE,105,1.0,1.0,89,0.00,,CLR,0.00,VWS V14.01,2013-04-21 06:13:00,
2013-04-21 02:18:00,17.4,15.2,30.51,ESE,105,1.0,2.0,91,0.00,,CLR,0.00,VWS V14.01,2013-04-21 06:18:00,
2013-04-21 02:23:00,17.4,15.0,30.51,ESE,105,0.0,0.0,90,0.00,,CLR,0.00,VWS V14.01,2013-04-21 06:23:00,
2013-04-21 02:28:00,17.7,15.3,30.51,ESE,105,1.0,1.0,90,0.00,,CLR,0.00,VWS V14.01,2013-04-21 06:28:00,
2013-04-21 02:33:00,17.4,15.0,30.51,ESE,105,2.0,2.0,90,0.00,,CLR,0.00,VWS V14.01,2013-04-21 06:33:00,
2013-04-21 02:38:00,17.1,14.7,30.52,ESE,105,2.0,2.0,90,0.00,,CLR,0.00,VWS V14.01,2013-04-21 06:38:00,
2013-04-21 02:44:00,17.6,15.4,30.52,ESE,105,0.0,1.0,91,0.00,,CLR,0.00,VWS V14.01,2013-04-21 06:44:00,
2013-04-21 02:49:00,17.4,15.0,30.52,ESE,105,0.0,1.0,90,0.00,,CLR,0.00,VWS V14.01,2013-04-21 06:49:00,
2013-04-21 02:54:00,17.0,14.3,30.52,ESE,105,1.0,2.0,89,0.00,,CLR,0.00,VWS V14.01,2013-04-21 06:54:00,
2013-04-21 02:59:00,17.2,14.8,30.52,ESE,105,1.0,1.0,90,0.00,,CLR,0.00,VWS V14.01,2013-04-21 06:59:00,
2013-04-21 03:04:00,16.9,14.5,30.52,ESE,105,1.0,1.0,90,0.00,,CLR,0.00,VWS V14.01,2013-04-21 07:04:00,
2013-04-21 03:09:00,16.3,13.9,30.52,ESE,105,1.0,2.0,90,0.00,,CLR,0.00,VWS V14.01,2013-04-21 07:09:00,
2013-04-21 03:14:00,16.5,14.3,30.52,ESE,105,2.0,2.0,91,0.00,,CLR,0.00,VWS V14.01,2013-04-21 07:14:00,
2013-04-21 03:19:00,17.0,14.6,30.52,ESE,105,1.0,2.0,90,0.00,,CLR,0.00,VWS V14.01,2013-04-21 07:19:00,
2013-04-21 03:24:00,16.8,14.1,30.52,ESE,105,0.0,0.0,89,0.00,,CLR,0.00,VWS V14.01,2013-04-21 07:24:00,
2013-04-21 03:29:00,16.7,14.3,30.52,ESE,105,1.0,1.0,90,0.00,,CLR,0.00,VWS V14.01,2013-04-21 07:29:00,
2013-04-21 03:34:00,16.6,13.9,30.53,ESE,105,0.0,0.0,89,0.00,,CLR,0.00,VWS V14.01,2013-04-21 07:34:00,
2013-04-21 03:39:00,16.3,13.9,30.53,ESE,105,2.0,2.0,90,0.00,,CLR,0.00,VWS V14.01,2013-04-21 07:39:00,
2013-04-21 03:44:00,16.4,14.0,30.53,ESE,105,0.0,1.0,90,0.00,,CLR,0.00,VWS V14.01,2013-04-21 07:44:00,
2013-04-21 03:49:00,16.5,14.1,30.53,ESE,105,0.0,0.0,90,0.00,,CLR,0.00,VWS V14.01,2013-04-21 07:49:00,
2013-04-21 03:54:00,16.4,14.0,30.53,ESE,105,0.0,0.0,90,0.00,,CLR,0.00,VWS V14.01,2013-04-21 07:54:00,
2013-04-21 03:59:00,16.5,14.1,30.53,ESE,113,0.0,1.0,90,0.00,,CLR,0.00,VWS V14.01,2013-04-21 07:59:00,
2013-04-21 04:04:00,16.6,14.2,30.53,ESE,113,1.0,2.0,90,0.00,,CLR,0.00,VWS V14.01,2013-04-21 08:04:00,
2013-04-21 04:09:00,16.7,14.3,30.53,ESE,113,0.0,1.0,90,0.00,,CLR,0.00,VWS V14.01,2013-04-21 08:09:00,
2013-04-21 04:14:00,16.6,13.9,30.53,ESE,113,0.0,1.0,89,0.00,,CLR,0.00,VWS V14.01,2013-04-21 08:14:00,
2013-04-21 04:19:00,16.1,13.4,30.53,ESE,113,1.0,2.0,89,0.00,,CLR,0.00,VWS V14.01,2013-04-21 08:19:00,
2013-04-21 04:24:00,16.8,14.6,30.53,ESE,113,3.0,3.0,91,0.00,,CLR,0.00,VWS V14.01,2013-04-21 08:24:00,
2013-04-21 04:29:00,17.0,14.6,30.53,ESE,113,3.0,3.0,90,0.00,,CLR,0.00,VWS V14.01,2013-04-21 08:29:00,
2013-04-21 04:34:00,16.6,13.9,30.53,ESE,113,2.0,2.0,89,0.00,,CLR,0.00,VWS V14.01,2013-04-21 08:34:00,
2013-04-21 04:39:00,16.9,14.5,30.53,ESE,114,1.0,1.0,90,0.00,,CLR,0.00,VWS V14.01,2013-04-21 08:39:00,
2013-04-21 04:44:00,16.9,14.5,30.54,ESE,114,0.0,1.0,90,0.00,,CLR,0.00,VWS V14.01,2013-04-21 08:44:00,
2013-04-21 04:49:00,16.4,14.0,30.54,ESE,114,1.0,1.0,90,0.00,,CLR,0.00,VWS V14.01,2013-04-21 08:49:00,
2013-04-21 04:54:00,16.1,13.7,30.54,ESE,114,1.0,1.0,90,0.00,,CLR,0.00,VWS V14.01,2013-04-21 08:54:00,
2013-04-21 04:59:00,16.7,14.5,30.54,ESE,114,1.0,1.0,91,0.00,,CLR,0.00,VWS V14.01,2013-04-21 08:59:00,
2013-04-21 05:04:00,16.8,14.4,30.54,ESE,114,1.0,2.0,90,0.00,,CLR,0.00,VWS V14.01,2013-04-21 09:04:00,
2013-04-21 05:09:00,16.8,14.4,30.54,ESE,113,2.0,2.0,90,0.00,,CLR,0.00,VWS V14.01,2013-04-21 09:09:00,
2013-04-21 05:14:00,16.4,14.0,30.54,ESE,113,1.0,1.0,90,0.00,,CLR,0.00,VWS V14.01,2013-04-21 09:14:00,
2013-04-21 05:19:00,16.4,14.0,30.55,ESE,116,1.0,2.0,90,0.00,,CLR,0.00,VWS V14.01,2013-04-21 09:19:00,
2013-04-21 05:24:00,15.8,13.4,30.55,ESE,116,2.0,2.0,90,0.00,,CLR,0.00,VWS V14.01,2013-04-21 09:24:00,
2013-04-21 05:29:00,15.9,13.7,30.55,ESE,116,1.0,1.0,91,0.00,,CLR,0.00,VWS V14.01,2013-04-21 09:29:00,
2013-04-21 05:34:00,15.8,13.4,30.55,ESE,116,0.0,1.0,90,0.00,,CLR,0.00,VWS V14.01,2013-04-21 09:34:00,
2013-04-21 05:39:00,14.7,12.1,30.56,ESE,116,1.0,1.0,89,0.00,,CLR,0.00,VWS V14.01,2013-04-21 09:39:00,
2013-04-21 05:44:00,15.1,12.9,30.56,ESE,116,2.0,2.0,91,0.00,,CLR,0.00,VWS V14.01,2013-04-21 09:44:00,
2013-04-21 05:49:00,15.5,13.6,30.56,ESE,116,2.0,2.0,92,0.00,,CLR,0.00,VWS V14.01,2013-04-21 09:49:00,
2013-04-21 05:54:00,15.6,13.4,30.56,ESE,116,1.0,2.0,91,0.00,,CLR,0.00,VWS V14.01,2013-04-21 09:54:00,
2013-04-21 05:59:00,15.6,13.4,30.56,ESE,116,0.0,1.0,91,0.00,,CLR,0.00,VWS V14.01,2013-04-21 09:59:00,
2013-04-21 06:04:00,15.7,13.5,30.56,ESE,116,0.0,0.0,91,0.00,,CLR,0.00,VWS V14.01,2013-04-21 10:04:00,
2013-04-21 06:09:00,15.0,12.4,30.56,ESE,116,2.0,2.0,89,0.00,,CLR,0.00,VWS V14.01,2013-04-21 10:09:00,
2013-04-21 06:14:00,14.6,12.2,30.57,ESE,116,0.0,1.0,90,0.00,,CLR,0.00,VWS V14.01,2013-04-21 10:14:00,
2013-04-21 06:19:00,15.1,13.2,30.57,ESE,116,1.0,1.0,92,0.00,,CLR,0.00,VWS V14.01,2013-04-21 10:19:00,
2013-04-21 06:24:00,14.7,12.3,30.57,ESE,116,2.0,2.0,90,0.00,,CLR,0.00,VWS V14.01,2013-04-21 10:24:00,
2013-04-21 06:29:00,14.8,12.6,30.58,ESE,115,3.0,3.0,91,0.00,,CLR,0.00,VWS V14.01,2013-04-21 10:29:00,
2013-04-21 06:35:00,14.9,12.8,30.58,ESE,115,3.0,3.0,91,0.00,,CLR,0.00,VWS V14.01,2013-04-21 10:35:00,
2013-04-21 06:40:00,15.0,12.9,30.58,ESE,111,2.0,2.0,91,0.00,,CLR,0.00,VWS V14.01,2013-04-21 10:40:00,
2013-04-21 06:45:00,15.2,13.1,30.58,ESE,113,3.0,3.0,91,0.00,,CLR,0.00,VWS V14.01,2013-04-21 10:45:00,
2013-04-21 06:50:00,15.3,13.1,30.58,ESE,113,3.0,3.0,91,0.00,,CLR,0.00,VWS V14.01,2013-04-21 10:50:00,
2013-04-21 06:55:00,15.5,13.4,30.58,ESE,112,2.0,2.0,91,0.00,,CLR,0.00,VWS V14.01,2013-04-21 10:55:00,
2013-04-21 07:00:00,15.8,13.6,30.58,ESE,117,4.0,4.0,91,0.00,,CLR,0.00,VWS V14.01,2013-04-21 11:00:00,
2013-04-21 07:05:00,16.1,13.9,30.58,ESE,117,3.0,3.0,91,0.00,,CLR,0.00,VWS V14.01,2013-04-21 11:05:00,
2013-04-21 07:10:00,16.3,13.9,30.59,ESE,118,3.0,3.0,90,0.00,,CLR,0.00,VWS V14.01,2013-04-21 11:10:00,
2013-04-21 07:15:00,16.8,14.4,30.59,ESE,119,3.0,3.0,90,0.00,,CLR,0.00,VWS V14.01,2013-04-21 11:15:00,
2013-04-21 07:20:00,17.2,14.8,30.59,ESE,119,1.0,2.0,90,0.00,,CLR,0.00,VWS V14.01,2013-04-21 11:20:00,
2013-04-21 07:25:00,17.5,15.1,30.59,ESE,119,2.0,2.0,90,0.00,,CLR,0.00,VWS V14.01,2013-04-21 11:25:00,
2013-04-21 07:30:00,18.1,15.9,30.60,ESE,119,1.0,1.0,91,0.00,,CLR,0.00,VWS V14.01,2013-04-21 11:30:00,
2013-04-21 07:35:00,19.1,16.7,30.60,ESE,116,2.0,3.0,90,0.00,,CLR,0.00,VWS V14.01,2013-04-21 11:35:00,
2013-04-21 07:40:00,20.4,17.7,30.60,ESE,115,1.0,2.0,89,0.00,,CLR,0.00,VWS V14.01,2013-04-21 11:40:00,
2013-04-21 07:45:00,21.5,18.8,30.60,ESE,116,1.0,1.0,89,0.00,,CLR,0.00,VWS V14.01,2013-04-21 11:45:00,
2013-04-21 07:50:00,22.4,19.1,30.60,ESE,119,1.0,1.0,87,0.00,,CLR,0.00,VWS V14.01,2013-04-21 11:50:00,
2013-04-21 07:55:00,23.1,19.3,30.60,ESE,119,1.0,2.0,85,0.00,,CLR,0.00,VWS V14.01,2013-04-21 11:55:00,
2013-04-21 08:00:00,23.8,19.7,30.60,ESE,121,2.0,2.0,84,0.00,,CLR,0.00,VWS V14.01,2013-04-21 12:00:00,
2013-04-21 08:05:00,24.7,20.3,30.60,SE,128,2.0,3.0,83,0.00,,CLR,0.00,VWS V14.01,2013-04-21 12:05:00,
2013-04-21 08:10:00,25.5,21.1,30.60,SE,132,2.0,2.0,83,0.00,,CLR,0.00,VWS V14.01,2013-04-21 12:10:00,
2013-04-21 08:15:00,26.1,21.4,30.61,SE,138,0.0,1.0,82,0.00,,CLR,0.00,VWS V14.01,2013-04-21 12:15:00,
2013-04-21 08:20:00,26.5,21.5,30.61,SE,140,1.0,1.0,81,0.00,,CLR,0.00,VWS V14.01,2013-04-21 12:20:00,
2013-04-21 08:25:00,26.9,20.7,30.61,SSE,157,2.0,2.0,77,0.00,,CLR,0.00,VWS V14.01,2013-04-21 12:25:00,
2013-04-21 08:30:00,27.1,20.5,30.61,SSW,213,2.0,3.0,76,0.00,,CLR,0.00,VWS V14.01,2013-04-21 12:30:00,
2013-04-21 08:35:00,27.1,20.9,30.61,SSW,208,1.0,1.0,77,0.00,,CLR,0.00,VWS V14.01,2013-04-21 12:35:00,
2013-04-21 08:40:00,27.4,20.5,30.61,SE,125,7.0,7.0,75,0.00,,CLR,0.00,VWS V14.01,2013-04-21 12:40:00,
2013-04-21 08:45:00,27.8,20.6,30.61,SSW,206,2.0,3.0,74,0.00,,CLR,0.00,VWS V14.01,2013-04-21 12:45:00,
2013-04-21 08:50:00,27.9,20.1,30.62,South,184,2.0,2.0,72,0.00,,CLR,0.00,VWS V14.01,2013-04-21 12:50:00,
2013-04-21 08:55:00,28.1,19.6,30.62,SSE,167,2.0,2.0,70,0.00,,CLR,0.00,VWS V14.01,2013-04-21 12:55:00,
2013-04-21 09:00:00,28.3,19.8,30.62,SSW,205,2.0,6.0,70,0.00,,CLR,0.00,VWS V14.01,2013-04-21 13:00:00,
2013-04-21 09:05:00,28.5,19.3,30.62,SW,217,6.0,6.0,68,0.00,,CLR,0.00,VWS V14.01,2013-04-21 13:05:00,
2013-04-21 09:10:00,28.6,20.1,30.62,SSW,212,3.0,3.0,70,0.00,,CLR,0.00,VWS V14.01,2013-04-21 13:10:00,
2013-04-21 09:15:00,29.0,19.1,30.62,SSW,202,3.0,4.0,66,0.00,,CLR,0.00,VWS V14.01,2013-04-21 13:15:00,
2013-04-21 09:20:00,29.5,19.6,30.62,SSW,211,7.0,7.0,66,0.00,,CLR,0.00,VWS V14.01,2013-04-21 13:20:00,
2013-04-21 09:26:00,29.5,19.2,30.62,SE,146,3.0,4.0,65,0.00,,CLR,0.00,VWS V14.01,2013-04-21 13:26:00,
2013-04-21 09:31:00,30.0,20.0,30.62,South,189,1.0,2.0,66,0.00,,CLR,0.00,VWS V14.01,2013-04-21 13:31:00,
2013-04-21 09:36:00,30.3,19.6,30.62,SSE,167,5.0,5.0,64,0.00,,CLR,0.00,VWS V14.01,2013-04-21 13:36:00,
2013-04-21 09:40:00,31.0,20.6,30.62,SSE,163,1.0,2.0,65,0.00,,CLR,0.00,VWS V14.01,2013-04-21 13:40:00,
2013-04-21 09:46:00,31.1,19.2,30.62,ESE,123,4.0,5.0,61,0.00,,CLR,0.00,VWS V14.01,2013-04-21 13:46:00,
2013-04-21 09:51:00,31.6,20.5,30.62,WSW,241,3.0,3.0,63,0.00,,CLR,0.00,VWS V14.01,2013-04-21 13:51:00,
2013-04-21 09:56:00,32.1,20.2,30.61,SSE,163,5.0,8.0,61,0.00,,CLR,0.00,VWS V14.01,2013-04-21 13:56:00,
2013-04-21 10:01:00,32.4,19.7,30.62,SW,215,3.0,4.0,59,0.00,,CLR,0.00,VWS V14.01,2013-04-21 14:01:00,
2013-04-21 10:06:00,32.5,19.4,30.62,SW,225,4.0,6.0,58,0.00,,CLR,0.00,VWS V14.01,2013-04-21 14:06:00,
2013-04-21 10:11:00,33.2,20.4,30.61,SW,233,6.0,6.0,59,0.00,,CLR,0.00,VWS V14.01,2013-04-21 14:11:00,
2013-04-21 10:16:00,33.2,20.8,30.61,SE,125,4.0,7.0,60,0.00,,CLR,0.00,VWS V14.01,2013-04-21 14:16:00,
2013-04-21 10:21:00,32.9,19.8,30.62,SE,125,5.0,7.0,58,0.00,,CLR,0.00,VWS V14.01,2013-04-21 14:21:00,
2013-04-21 10:26:00,33.8,20.2,30.62,ESE,115,3.0,5.0,57,0.00,,CLR,0.00,VWS V14.01,2013-04-21 14:26:00,
2013-04-21 10:31:00,34.2,20.1,30.62,ESE,123,8.0,10.0,56,0.00,,CLR,0.00,VWS V14.01,2013-04-21 14:31:00,
2013-04-21 10:36:00,33.6,19.2,30.62,SE,133,9.0,9.0,55,0.00,,CLR,0.00,VWS V14.01,2013-04-21 14:36:00,
2013-04-21 10:41:00,33.8,19.4,30.62,ESE,121,7.0,7.0,55,0.00,,CLR,0.00,VWS V14.01,2013-04-21 14:41:00,
2013-04-21 10:46:00,34.0,18.2,30.62,South,184,2.0,3.0,52,0.00,,CLR,0.00,VWS V14.01,2013-04-21 14:46:00,
2013-04-21 10:51:00,35.0,19.2,30.62,SE,136,8.0,10.0,52,0.00,,CLR,0.00,VWS V14.01,2013-04-21 14:51:00,
2013-04-21 10:56:00,35.2,19.4,30.62,SE,134,3.0,7.0,52,0.00,,CLR,0.00,VWS V14.01,2013-04-21 14:56:00,
2013-04-21 11:01:00,35.3,18.5,30.62,WSW,242,6.0,7.0,50,0.00,,CLR,0.00,VWS V14.01,2013-04-21 15:01:00,
2013-04-21 11:06:00,35.6,18.8,30.62,SSE,158,7.0,9.0,50,0.00,,CLR,0.00,VWS V14.01,2013-04-21 15:06:00,
2013-04-21 11:11:00,35.3,17.6,30.62,ESE,114,10.0,12.0,48,0.00,,CLR,0.00,VWS V14.01,2013-04-21 15:11:00,
2013-04-21 11:16:00,35.7,18.0,30.62,SW,236,4.0,4.0,48,0.00,,CLR,0.00,VWS V14.01,2013-04-21 15:16:00,
2013-04-21 11:21:00,35.8,17.6,30.62,SSE,150,6.0,6.0,47,0.00,,CLR,0.00,VWS V14.01,2013-04-21 15:21:00,
2013-04-21 11:26:00,35.9,18.1,30.62,ESE,120,6.0,8.0,48,0.00,,CLR,0.00,VWS V14.01,2013-04-21 15:26:00,
2013-04-21 11:31:00,36.2,16.4,30.62,SSW,213,2.0,2.0,44,0.00,,CLR,0.00,VWS V14.01,2013-04-21 15:31:00,
2013-04-21 11:36:00,36.8,17.0,30.62,ESE,118,7.0,7.0,44,0.00,,CLR,0.00,VWS V14.01,2013-04-21 15:36:00,
2013-04-21 11:41:00,37.0,16.6,30.61,SW,217,8.0,10.0,43,0.00,,CLR,0.00,VWS V14.01,2013-04-21 15:41:00,
2013-04-21 11:46:00,38.0,18.0,30.61,SW,229,7.0,9.0,44,0.00,,CLR,0.00,VWS V14.01,2013-04-21 15:46:00,
2013-04-21 11:51:00,37.0,15.5,30.61,SSE,150,1.0,1.0,41,0.00,,CLR,0.00,VWS V14.01,2013-04-21 15:51:00,
2013-04-21 11:56:00,38.2,17.1,30.61,ENE,68,5.0,8.0,42,0.00,,CLR,0.00,VWS V14.01,2013-04-21 15:56:00,
2013-04-21 12:01:00,37.8,15.7,30.61,SW,228,7.0,8.0,40,0.00,,CLR,0.00,VWS V14.01,2013-04-21 16:01:00,
2013-04-21 12:06:00,37.4,15.3,30.61,SSW,212,3.0,3.0,40,0.00,,CLR,0.00,VWS V14.01,2013-04-21 16:06:00,
2013-04-21 12:11:00,37.7,16.7,30.61,ESE,115,6.0,9.0,42,0.00,,CLR,0.00,VWS V14.01,2013-04-21 16:11:00,
2013-04-21 12:16:00,37.8,16.2,30.61,SE,132,7.0,7.0,41,0.00,,CLR,0.00,VWS V14.01,2013-04-21 16:16:00,
2013-04-21 12:21:00,38.2,16.0,30.61,SSE,155,2.0,4.0,40,0.00,,CLR,0.00,VWS V14.01,2013-04-21 16:21:00,
2013-04-21 12:26:00,38.0,14.7,30.61,SE,128,8.0,9.0,38,0.00,,CLR,0.00,VWS V14.01,2013-04-21 16:26:00,
2013-04-21 12:31:00,37.7,13.8,30.60,South,180,2.0,6.0,37,0.00,,CLR,0.00,VWS V14.01,2013-04-21 16:31:00,
2013-04-21 12:36:00,38.1,15.4,30.60,WSW,246,5.0,8.0,39,0.00,,CLR,0.00,VWS V14.01,2013-04-21 16:36:00,
2013-04-21 12:41:00,38.5,14.5,30.60,SSW,194,8.0,8.0,37,0.00,,CLR,0.00,VWS V14.01,2013-04-21 16:41:00,
2013-04-21 12:46:00,38.0,14.7,30.60,NNE,22,3.0,3.0,38,0.00,,CLR,0.00,VWS V14.01,2013-04-21 16:46:00,
2013-04-21 12:52:00,38.9,15.5,30.60,WSW,239,3.0,4.0,38,0.00,,CLR,0.00,VWS V14.01,2013-04-21 16:52:00,
2013-04-21 12:57:00,38.9,15.5,30.59,West,259,9.0,9.0,38,0.00,,CLR,0.00,VWS V14.01,2013-04-21 16:57:00,
2013-04-21 13:02:00,39.0,16.2,30.59,SE,132,7.0,9.0,39,0.00,,CLR,0.00,VWS V14.01,2013-04-21 17:02:00,
2013-04-21 13:07:00,38.0,15.8,30.59,NNW,340,2.0,3.0,40,0.00,,FEW095,0.00,VWS V14.01,2013-04-21 17:07:00,
2013-04-21 13:12:00,39.2,16.9,30.59,SW,214,7.0,13.0,40,0.00,,FEW095,0.00,VWS V14.01,2013-04-21 17:12:00,
2013-04-21 13:17:00,40.1,17.7,30.59,ESE,103,2.0,2.0,40,0.00,,FEW095,0.00,VWS V14.01,2013-04-21 17:17:00,
2013-04-21 13:22:00,40.0,17.1,30.58,West,259,3.0,4.0,39,0.00,,FEW095,0.00,VWS V14.01,2013-04-21 17:22:00,
2013-04-21 13:27:00,40.4,17.4,30.58,SE,139,5.0,7.0,39,0.00,,FEW095,0.00,VWS V14.01,2013-04-21 17:27:00,
2013-04-21 13:32:00,40.8,17.2,30.58,ESE,119,3.0,5.0,38,0.00,,FEW095,0.00,VWS V14.01,2013-04-21 17:32:00,
2013-04-21 13:37:00,40.2,16.6,30.58,WNW,283,3.0,5.0,38,0.00,,FEW095,0.00,VWS V14.01,2013-04-21 17:37:00,
2013-04-21 13:42:00,40.7,15.8,30.57,ESE,117,3.0,4.0,36,0.00,,FEW095,0.00,VWS V14.01,2013-04-21 17:42:00,
2013-04-21 13:47:00,40.6,16.4,30.57,WSW,252,3.0,5.0,37,0.00,,FEW095,0.00,VWS V14.01,2013-04-21 17:47:00,
2013-04-21 13:52:00,40.5,16.3,30.57,SSE,157,7.0,7.0,37,0.00,,FEW095,0.00,VWS V14.01,2013-04-21 17:52:00,
2013-04-21 13:57:00,40.6,16.4,30.57,SW,227,7.0,7.0,37,0.00,,FEW095,0.00,VWS V14.01,2013-04-21 17:57:00,
2013-04-21 14:02:00,41.4,17.7,30.56,SE,128,9.0,10.0,38,0.00,,OVC080,0.00,VWS V14.01,2013-04-21 18:02:00,
2013-04-21 14:07:00,41.6,14.6,30.57,SW,234,3.0,4.0,33,0.00,,OVC080,0.00,VWS V14.01,2013-04-21 18:07:00,
2013-04-21 14:12:00,41.5,15.2,30.56,WSW,246,4.0,4.0,34,0.00,,OVC080,0.00,VWS V14.01,2013-04-21 18:12:00,
2013-04-21 14:17:00,42.7,17.0,30.56,SSE,147,10.0,10.0,35,0.00,,OVC080,0.00,VWS V14.01,2013-04-21 18:17:00,
2013-04-21 14:22:00,42.2,15.2,30.56,SE,132,4.0,7.0,33,0.00,,OVC080,0.00,VWS V14.01,2013-04-21 18:22:00,
2013-04-21 14:27:00,41.6,16.0,30.55,SW,215,6.0,7.0,35,0.00,,OVC080,0.00,VWS V14.01,2013-04-21 18:27:00,
2013-04-21 14:32:00,42.7,17.0,30.55,SE,129,4.0,6.0,35,0.00,,OVC080,0.00,VWS V14.01,2013-04-21 18:32:00,
2013-04-21 14:37:00,44.1,16.1,30.55,WSW,248,7.0,11.0,32,0.00,,OVC080,0.00,VWS V14.01,2013-04-21 18:37:00,
2013-04-21 14:42:00,44.2,13.2,30.55,West,266,11.0,11.0,28,0.00,,OVC080,0.00,VWS V14.01,2013-04-21 18:42:00,
2013-04-21 14:47:00,43.9,13.7,30.54,West,279,8.0,8.0,29,0.00,,OVC080,0.00,VWS V14.01,2013-04-21 18:47:00,
2013-04-21 14:52:00,42.1,17.7,30.54,SW,231,2.0,2.0,37,0.00,,OVC080,0.00,VWS V14.01,2013-04-21 18:52:00,
2013-04-21 14:57:00,42.8,15.7,30.55,South,177,11.0,12.0,33,0.00,,OVC080,0.00,VWS V14.01,2013-04-21 18:57:00,
2013-04-21 15:02:00,44.3,14.8,30.54,SSE,168,3.0,6.0,30,0.00,,SCT065,0.00,VWS V14.01,2013-04-21 19:02:00,
2013-04-21 15:07:00,43.9,15.2,30.54,ESE,108,2.0,3.0,31,0.00,,SCT065,0.00,VWS V14.01,2013-04-21 19:07:00,
2013-04-21 15:12:00,44.2,16.9,30.53,West,280,6.0,10.0,33,0.00,,SCT065,0.00,VWS V14.01,2013-04-21 19:12:00,
2013-04-21 15:17:00,45.1,17.7,30.53,SW,229,3.0,3.0,33,0.00,,SCT065,0.00,VWS V14.01,2013-04-21 19:17:00,
2013-04-21 15:22:00,43.8,16.6,30.53,ESE,117,7.0,10.0,33,0.00,,SCT065,0.00,VWS V14.01,2013-04-21 19:22:00,
2013-04-21 15:27:00,44.2,13.2,30.53,ESE,121,7.0,7.0,28,0.00,,SCT065,0.00,VWS V14.01,2013-04-21 19:27:00,
2013-04-21 15:32:00,44.2,13.2,30.52,SW,217,4.0,4.0,28,0.00,,SCT065,0.00,VWS V14.01,2013-04-21 19:32:00,
2013-04-21 15:37:00,44.9,14.6,30.52,SE,128,7.0,7.0,29,0.00,,SCT065,0.00,VWS V14.01,2013-04-21 19:37:00,
2013-04-21 15:42:00,44.7,12.8,30.51,ESE,111,9.0,11.0,27,0.00,,SCT065,0.00,VWS V14.01,2013-04-21 19:42:00,
2013-04-21 15:47:00,45.1,14.8,30.51,SSE,157,8.0,10.0,29,0.00,,SCT065,0.00,VWS V14.01,2013-04-21 19:47:00,
2013-04-21 15:52:00,44.9,13.0,30.50,West,263,7.0,9.0,27,0.00,,SCT065,0.00,VWS V14.01,2013-04-21 19:52:00,
2013-04-21 15:57:00,45.0,13.9,30.50,SSE,152,3.0,7.0,28,0.00,,SCT065,0.00,VWS V14.01,2013-04-21 19:57:00,
2013-04-21 16:02:00,44.6,13.5,30.50,SE,134,5.0,8.0,28,0.00,,OVC045,0.00,VWS V14.01,2013-04-21 20:02:00,
2013-04-21 16:07:00,46.1,14.0,30.50,SW,229,7.0,11.0,27,0.00,,OVC045,0.00,VWS V14.01,2013-04-21 20:07:00,
2013-04-21 16:12:00,45.6,14.4,30.50,ESE,109,7.0,7.0,28,0.00,,OVC045,0.00,VWS V14.01,2013-04-21 20:12:00,
2013-04-21 16:17:00,44.9,12.1,30.49,SE,139,7.0,8.0,26,0.00,,OVC045,0.00,VWS V14.01,2013-04-21 20:17:00,
2013-04-21 16:23:00,45.5,12.6,30.49,SW,229,5.0,5.0,26,0.00,,OVC045,0.00,VWS V14.01,2013-04-21 20:23:00,
2013-04-21 16:28:00,45.5,13.5,30.48,SSE,157,9.0,11.0,27,0.00,,OVC045,0.00,VWS V14.01,2013-04-21 20:28:00,
2013-04-21 16:33:00,46.0,13.1,30.48,SE,132,7.0,9.0,26,0.00,,OVC045,0.00,VWS V14.01,2013-04-21 20:33:00,
2013-04-21 16:38:00,46.5,13.5,30.48,SSW,203,2.0,7.0,26,0.00,,OVC045,0.00,VWS V14.01,2013-04-21 20:38:00,
2013-04-21 16:43:00,46.5,13.5,30.47,SE,131,9.0,10.0,26,0.00,,OVC045,0.00,VWS V14.01,2013-04-21 20:43:00,
2013-04-21 16:48:00,47.0,13.0,30.46,SW,236,10.0,10.0,25,0.00,,OVC045,0.00,VWS V14.01,2013-04-21 20:48:00,
2013-04-21 16:53:00,46.8,12.9,30.46,SW,219,8.0,10.0,25,0.00,,OVC045,0.00,VWS V14.01,2013-04-21 20:53:00,
2013-04-21 16:58:00,46.5,12.6,30.46,ESE,107,3.0,4.0,25,0.00,,OVC045,0.00,VWS V14.01,2013-04-21 20:58:00,
2013-04-21 17:03:00,47.4,15.1,30.46,ESE,116,10.0,10.0,27,0.00,,OVC045,0.00,VWS V14.01,2013-04-21 21:03:00,
2013-04-21 17:08:00,44.7,25.2,30.46,SE,127,9.0,10.0,46,0.00,,OVC045,0.00,VWS V14.01,2013-04-21 21:08:00,
2013-04-21 17:13:00,44.6,25.1,30.45,ENE,66,5.0,7.0,46,0.00,,OVC045,0.00,VWS V14.01,2013-04-21 21:13:00,
2013-04-21 17:18:00,44.3,25.4,30.45,ESE,117,10.0,10.0,47,0.00,,OVC045,0.00,VWS V14.01,2013-04-21 21:18:00,
2013-04-21 17:23:00,42.8,25.9,30.44,East,98,8.0,13.0,51,0.00,,OVC045,0.00,VWS V14.01,2013-04-21 21:23:00,
2013-04-21 17:28:00,42.8,26.4,30.44,ENE,78,4.0,8.0,52,0.00,,OVC045,0.00,VWS V14.01,2013-04-21 21:28:00,
2013-04-21 17:33:00,42.6,26.2,30.44,ENE,66,8.0,8.0,52,0.00,,OVC045,0.00,VWS V14.01,2013-04-21 21:33:00,
2013-04-21 17:38:00,43.2,27.2,30.44,East,91,3.0,4.0,53,0.00,,OVC045,0.00,VWS V14.01,2013-04-21 21:38:00,
2013-04-21 17:43:00,43.6,27.1,30.44,ESE,104,10.0,10.0,52,0.00,,OVC045,0.00,VWS V14.01,2013-04-21 21:43:00,
2013-04-21 17:48:00,42.8,26.4,30.43,East,89,10.0,11.0,52,0.00,,OVC045,0.00,VWS V14.01,2013-04-21 21:48:00,
2013-04-21 17:53:00,42.9,27.4,30.43,ESE,107,9.0,9.0,54,0.00,,OVC045,0.00,VWS V14.01,2013-04-21 21:53:00,
2013-04-21 17:58:00,42.9,27.4,30.43,East,87,3.0,4.0,54,0.00,,OVC045,0.00,VWS V14.01,2013-04-21 21:58:00,
2013-04-21 18:03:00,42.4,27.4,30.43,ESE,109,6.0,6.0,55,0.00,,OVC049,0.00,VWS V14.01,2013-04-21 22:03:00,
2013-04-21 18:08:00,42.6,28.9,30.43,ESE,115,8.0,8.0,58,0.00,,OVC049,0.00,VWS V14.01,2013-04-21 22:08:00,
2013-04-21 18:13:00,42.7,28.1,30.43,SE,125,7.0,9.0,56,0.00,,OVC049,0.00,VWS V14.01,2013-04-21 22:13:00,
2013-04-21 18:18:00,42.0,27.9,30.43,ESE,103,7.0,8.0,57,0.00,,OVC049,0.00,VWS V14.01,2013-04-21 22:18:00,
2013-04-21 18:23:00,42.0,28.3,30.43,ENE,78,9.0,10.0,58,0.00,,OVC049,0.00,VWS V14.01,2013-04-21 22:23:00,
2013-04-21 18:28:00,41.9,28.2,30.43,East,92,6.0,7.0,58,0.00,,OVC049,0.00,VWS V14.01,2013-04-21 22:28:00,
2013-04-21 18:33:00,42.1,28.8,30.42,East,81,9.0,11.0,59,0.00,,OVC049,0.00,VWS V14.01,2013-04-21 22:33:00,
2013-04-21 18:38:00,42.5,28.8,30.42,East,79,9.0,12.0,58,0.00,,OVC049,0.00,VWS V14.01,2013-04-21 22:38:00,
2013-04-21 18:43:00,42.2,28.5,30.42,East,95,6.0,6.0,58,0.00,,OVC049,0.00,VWS V14.01,2013-04-21 22:43:00,
2013-04-21 18:48:00,41.8,28.5,30.42,East,89,7.0,8.0,59,0.00,,OVC049,0.00,VWS V14.01,2013-04-21 22:48:00,
2013-04-21 18:53:00,41.4,29.0,30.42,East,98,9.0,9.0,61,0.00,,OVC049,0.00,VWS V14.01,2013-04-21 22:53:00,
2013-04-21 18:58:00,41.2,29.2,30.42,ENE,77,7.0,10.0,62,0.00,,OVC049,0.00,VWS V14.01,2013-04-21 22:58:00,
2013-04-21 19:03:00,41.0,29.4,30.42,East,96,6.0,6.0,63,0.00,,OVC043,0.00,VWS V14.01,2013-04-21 23:03:00,
2013-04-21 19:08:00,41.0,29.4,30.41,East,99,6.0,7.0,63,0.00,,OVC043,0.00,VWS V14.01,2013-04-21 23:08:00,
2013-04-21 19:13:00,41.2,30.0,30.41,East,98,7.0,7.0,64,0.00,,OVC043,0.00,VWS V14.01,2013-04-21 23:13:00,
2013-04-21 19:18:00,41.1,29.9,30.41,ESE,109,6.0,7.0,64,0.00,,OVC043,0.00,VWS V14.01,2013-04-21 23:18:00,
2013-04-21 19:23:00,41.2,30.0,30.41,East,98,8.0,8.0,64,0.00,,OVC043,0.00,VWS V14.01,2013-04-21 23:23:00,
2013-04-21 19:28:00,41.1,30.2,30.41,East,92,8.0,9.0,65,0.00,,OVC043,0.00,VWS V14.01,2013-04-21 23:28:00,
2013-04-21 19:34:00,41.0,29.8,30.41,East,87,7.0,7.0,64,0.00,,OVC043,0.00,VWS V14.01,2013-04-21 23:34:00,
2013-04-21 19:39:00,40.9,30.1,30.41,East,92,8.0,8.0,65,0.00,,OVC043,0.00,VWS V14.01,2013-04-21 23:39:00,
2013-04-21 19:44:00,40.9,30.1,30.41,ESE,105,6.0,6.0,65,0.00,,OVC043,0.00,VWS V14.01,2013-04-21 23:44:00,
2013-04-21 19:49:00,41.0,29.8,30.41,East,88,4.0,6.0,64,0.00,,OVC043,0.00,VWS V14.01,2013-04-21 23:49:00,
2013-04-21 19:54:00,41.1,30.2,30.41,East,100,4.0,4.0,65,0.00,,OVC043,0.00,VWS V14.01,2013-04-21 23:54:00,
2013-04-21 19:59:00,41.1,30.2,30.41,East,100,7.0,7.0,65,0.00,,OVC043,0.00,VWS V14.01,2013-04-21 23:59:00,
2013-04-21 20:04:00,41.0,30.1,30.41,ESE,117,4.0,6.0,65,0.00,,OVC041,0.00,VWS V14.01,2013-04-22 00:04:00,
2013-04-21 20:09:00,40.9,30.4,30.41,ESE,113,7.0,7.0,66,0.00,,OVC041,0.00,VWS V14.01,2013-04-22 00:09:00,
2013-04-21 20:14:00,40.8,30.3,30.41,East,93,4.0,4.0,66,0.00,,OVC041,0.00,VWS V14.01,2013-04-22 00:14:00,
2013-04-21 20:19:00,40.8,30.7,30.41,ESE,105,7.0,7.0,67,0.00,,OVC041,0.00,VWS V14.01,2013-04-22 00:19:00,
2013-04-21 20:24:00,40.7,30.6,30.41,ESE,109,3.0,4.0,67,0.00,,OVC041,0.00,VWS V14.01,2013-04-22 00:24:00,
2013-04-21 20:29:00,40.7,30.6,30.41,ESE,108,2.0,2.0,67,0.00,,OVC041,0.00,VWS V14.01,2013-04-22 00:29:00,
2013-04-21 20:34:00,40.6,30.5,30.41,ESE,112,4.0,4.0,67,0.00,,OVC041,0.00,VWS V14.01,2013-04-22 00:34:00,
2013-04-21 20:39:00,40.5,30.4,30.41,ESE,117,3.0,3.0,67,0.00,,OVC041,0.00,VWS V14.01,2013-04-22 00:39:00,
2013-04-21 20:44:00,40.5,30.4,30.40,ESE,117,3.0,4.0,67,0.00,,OVC041,0.00,VWS V14.01,2013-04-22 00:44:00,
2013-04-21 20:49:00,40.7,29.9,30.40,ESE,122,2.0,2.0,65,0.00,,OVC041,0.00,VWS V14.01,2013-04-22 00:49:00,
2013-04-21 20:54:00,40.9,29.7,30.40,ESE,121,2.0,3.0,64,0.00,,OVC041,0.00,VWS V14.01,2013-04-22 00:54:00,
2013-04-21 20:59:00,40.8,28.8,30.40,ESE,121,0.0,1.0,62,0.00,,OVC041,0.00,VWS V14.01,2013-04-22 00:59:00,
2013-04-21 21:04:00,41.1,27.5,30.41,SE,136,1.0,1.0,58,0.00,,OVC075,0.00,VWS V14.01,2013-04-22 01:04:00,
2013-04-21 21:09:00,41.6,25.8,30.41,SE,136,3.0,3.0,53,0.00,,OVC075,0.00,VWS V14.01,2013-04-22 01:09:00,
2013-04-21 21:14:00,42.1,23.8,30.41,SSE,161,1.0,2.0,48,0.00,,OVC075,0.00,VWS V14.01,2013-04-22 01:14:00,
2013-04-21 21:19:00,42.5,22.7,30.40,ESE,119,1.0,2.0,45,0.00,,OVC075,0.00,VWS V14.01,2013-04-22 01:19:00,
2013-04-21 21:24:00,42.8,22.4,30.40,ESE,103,1.0,3.0,44,0.00,,OVC075,0.00,VWS V14.01,2013-04-22 01:24:00,
2013-04-21 21:29:00,42.9,22.0,30.40,SE,139,2.0,3.0,43,0.00,,OVC075,0.00,VWS V14.01,2013-04-22 01:29:00,
2013-04-21 21:34:00,42.8,22.4,30.40,SE,132,3.0,3.0,44,0.00,,OVC075,0.00,VWS V14.01,2013-04-22 01:34:00,
2013-04-21 21:39:00,43.1,22.1,30.40,SSW,209,1.0,2.0,43,0.00,,OVC075,0.00,VWS V14.01,2013-04-22 01:39:00,
2013-04-21 21:44:00,43.1,22.7,30.40,SE,143,1.0,3.0,44,0.00,,OVC075,0.00,VWS V14.01,2013-04-22 01:44:00,
2013-04-21 21:49:00,43.2,22.2,30.40,SE,138,4.0,4.0,43,0.00,,OVC075,0.00,VWS V14.01,2013-04-22 01:49:00,
2013-04-21 21:54:00,43.2,22.2,30.40,SW,216,1.0,3.0,43,0.00,,OVC075,0.00,VWS V14.01,2013-04-22 01:54:00,
2013-04-21 21:59:00,43.2,22.2,30.40,SE,140,2.0,2.0,43,0.00,,OVC075,0.00,VWS V14.01,2013-04-22 01:59:00,
2013-04-21 22:04:00,43.2,22.2,30.40,ESE,113,0.0,1.0,43,0.00,,OVC120,0.00,VWS V14.01,2013-04-22 02:04:00,
2013-04-21 22:10:00,43.1,22.1,30.40,SE,134,1.0,2.0,43,0.00,,OVC120,0.00,VWS V14.01,2013-04-22 02:10:00,
2013-04-21 22:15:00,43.1,22.7,30.39,SE,144,2.0,5.0,44,0.00,,OVC120,0.00,VWS V14.01,2013-04-22 02:15:00,
2013-04-21 22:20:00,42.9,22.5,30.39,SE,127,4.0,4.0,44,0.00,,OVC120,0.00,VWS V14.01,2013-04-22 02:20:00,
2013-04-21 22:25:00,42.8,22.4,30.39,South,178,2.0,5.0,44,0.00,,OVC120,0.00,VWS V14.01,2013-04-22 02:25:00,
2013-04-21 22:30:00,42.7,22.3,30.39,SE,128,2.0,3.0,44,0.00,,OVC120,0.00,VWS V14.01,2013-04-22 02:30:00,
2013-04-21 22:35:00,42.5,22.1,30.39,SE,132,2.0,3.0,44,0.00,,OVC120,0.00,VWS V14.01,2013-04-22 02:35:00,
2013-04-21 22:40:00,42.3,23.0,30.39,SE,142,4.0,6.0,46,0.00,,OVC120,0.00,VWS V14.01,2013-04-22 02:40:00,
2013-04-21 22:45:00,42.2,22.9,30.39,ESE,113,2.0,5.0,46,0.00,,OVC120,0.00,VWS V14.01,2013-04-22 02:45:00,
2013-04-21 22:50:00,42.0,23.8,30.39,WNW,287,3.0,8.0,48,0.00,,OVC120,0.00,VWS V14.01,2013-04-22 02:50:00,
2013-04-21 22:55:00,42.1,24.8,30.39,SSE,157,3.0,6.0,50,0.00,,OVC120,0.00,VWS V14.01,2013-04-22 02:55:00,
2013-04-21 23:00:00,42.3,25.0,30.39,SE,135,9.0,9.0,50,0.00,,OVC120,0.00,VWS V14.01,2013-04-22 03:00:00,
2013-04-21 23:05:00,42.4,25.1,30.39,South,188,2.0,7.0,50,0.00,,OVC100,0.00,VWS V14.01,2013-04-22 03:05:00,
2013-04-21 23:10:00,42.4,26.0,30.38,SE,132,5.0,5.0,52,0.00,,OVC100,0.00,VWS V14.01,2013-04-22 03:10:00,
2013-04-21 23:15:00,42.4,26.0,30.38,ESE,112,3.0,7.0,52,0.00,,OVC100,0.00,VWS V14.01,2013-04-22 03:15:00,
2013-04-21 23:20:00,42.3,25.9,30.38,SE,139,3.0,5.0,52,0.00,,OVC100,0.00,VWS V14.01,2013-04-22 03:20:00,
2013-04-21 23:25:00,42.1,26.2,30.38,ESE,122,4.0,6.0,53,0.00,,OVC100,0.00,VWS V14.01,2013-04-22 03:25:00,
2013-04-21 23:30:00,41.8,26.4,30.38,East,100,2.0,6.0,54,0.00,,OVC100,0.00,VWS V14.01,2013-04-22 03:30:00,
2013-04-21 23:35:00,41.6,26.2,30.38,South,174,2.0,5.0,54,0.00,,OVC100,0.00,VWS V14.01,2013-04-22 03:35:00,
2013-04-21 23:40:00,41.5,26.1,30.38,SW,236,5.0,10.0,54,0.00,,OVC100,0.00,VWS V14.01,2013-04-22 03:40:00,
2013-04-21 23:45:00,41.3,26.4,30.37,SE,135,3.0,4.0,55,0.00,,OVC100,0.00,VWS V14.01,2013-04-22 03:45:00,
2013-04-21 23:50:00,41.1,26.2,30.37,SE,138,4.0,8.0,55,0.00,,OVC100,0.00,VWS V14.01,2013-04-22 03:50:00,
2013-04-21 23:55:00,40.8,26.3,30.37,SSE,150,5.0,8.0,56,0.00,,OVC100,0.00,VWS V14.01,2013-04-22 03:55:00,